createdAt,value
2022-08-17T00:00:05.891Z,9.05
2022-08-17T00:02:36.014Z,10.48
2022-08-17T00:05:09.721Z,7.18
2022-08-17T00:07:36.547Z,8.20
2022-08-17T00:10:03.794Z,7.68
2022-08-17T00:12:41.605Z,7.85
2022-08-17T00:15:13.562Z,7.45
2022-08-17T00:17:42.916Z,9.82
2022-08-17T00:20:12.511Z,8.95
2022-08-17T00:22:39.517Z,9.45
2022-08-17T00:25:12.278Z,10.70
2022-08-17T00:27:39.797Z,9.23
2022-08-17T00:30:10.949Z,7.32
2022-08-17T00:33:15.411Z,9.10
2022-08-17T00:35:29.297Z,7.78
2022-08-17T00:37:56.717Z,7.95
2022-08-17T00:40:24.941Z,8.30
2022-08-17T00:42:53.508Z,8.55
2022-08-17T00:45:21.292Z,8.38
2022-08-17T00:47:48.712Z,7.80
2022-08-17T00:50:18.804Z,8.23
2022-08-17T00:52:54.012Z,7.90
2022-08-17T00:57:55.505Z,7.65
2022-08-17T01:00:29.164Z,8.65
2022-08-17T01:03:01.020Z,9.32
2022-08-17T01:05:31.942Z,8.70
2022-08-17T01:08:01.028Z,7.60
2022-08-17T01:10:59.866Z,8.00
2022-08-17T01:13:41.491Z,12.02
2022-08-17T01:16:21.104Z,6.88
2022-08-17T01:18:53.037Z,8.98
2022-08-17T01:21:36.575Z,8.18
2022-08-17T01:24:04.005Z,7.97
2022-08-17T01:26:33.180Z,10.13
2022-08-17T01:29:02.527Z,10.98
2022-08-17T01:31:37.098Z,8.63
2022-08-17T01:34:09.811Z,10.85
2022-08-17T01:36:40.734Z,7.90
2022-08-17T01:39:31.156Z,8.98
2022-08-17T01:42:38.626Z,10.30
2022-08-17T01:45:17.668Z,7.10
2022-08-17T01:47:45.014Z,10.25
2022-08-17T01:50:17.904Z,10.48
2022-08-17T01:52:47.959Z,9.52
2022-08-17T01:55:18.356Z,8.20
2022-08-17T01:57:45.759Z,10.98
2022-08-17T02:00:14.362Z,11.82
2022-08-17T02:02:41.576Z,11.82
2022-08-17T02:05:09.018Z,8.60
2022-08-17T02:07:47.986Z,8.23
2022-08-17T02:10:24.056Z,9.25
2022-08-17T02:13:02.981Z,8.00
2022-08-17T02:15:30.301Z,8.25
2022-08-17T02:17:57.505Z,7.93
2022-08-17T02:20:41.304Z,10.68
2022-08-17T02:23:12.035Z,8.02
2022-08-17T02:25:43.549Z,10.00
2022-08-17T02:28:11.020Z,9.88
2022-08-17T02:30:59.083Z,9.15
2022-08-17T02:33:42.503Z,9.60
2022-08-17T02:38:41.892Z,12.30
2022-08-17T02:41:09.867Z,7.97
2022-08-17T02:43:36.897Z,6.93
2022-08-17T02:46:03.741Z,11.27
2022-08-17T02:48:32.076Z,8.55
2022-08-17T02:51:00.905Z,7.55
2022-08-17T02:53:33.675Z,7.30
2022-08-17T02:56:03.481Z,8.60
2022-08-17T02:58:35.388Z,7.75
2022-08-17T03:01:06.125Z,6.18
2022-08-17T03:03:33.510Z,10.27
2022-08-17T03:06:00.527Z,8.55
2022-08-17T03:08:27.616Z,7.72
2022-08-17T03:10:54.651Z,7.68
2022-08-17T03:13:21.797Z,6.22
2022-08-17T03:15:49.221Z,6.30
2022-08-17T03:18:25.724Z,7.32
2022-08-17T03:21:00.598Z,6.50
2022-08-17T03:23:29.441Z,5.72
2022-08-17T03:25:57.418Z,5.78
2022-08-17T03:28:24.706Z,8.88
2022-08-17T03:30:52.591Z,7.22
2022-08-17T03:33:20.132Z,5.68
2022-08-17T03:35:47.531Z,6.80
2022-08-17T03:38:17.420Z,7.80
2022-08-17T03:40:56.438Z,8.77
2022-08-17T03:43:32.098Z,6.05
2022-08-17T03:46:34.303Z,6.50
2022-08-17T03:49:23.259Z,8.45
2022-08-17T03:52:09.290Z,6.82
2022-08-17T03:54:55.167Z,6.20
2022-08-17T03:57:22.706Z,6.90
2022-08-17T03:59:50.844Z,7.97
2022-08-17T04:02:24.446Z,9.52
2022-08-17T04:04:52.699Z,7.35
2022-08-17T04:07:23.218Z,8.73
2022-08-17T04:09:50.807Z,7.93
2022-08-17T04:12:21.254Z,6.75
2022-08-17T04:14:52.909Z,7.68
2022-08-17T04:17:31.058Z,4.43
2022-08-17T04:19:58.484Z,8.65
2022-08-17T04:22:32.597Z,7.57
2022-08-17T04:25:16.333Z,8.52
2022-08-17T04:27:43.385Z,10.15
2022-08-17T04:30:11.382Z,7.22
2022-08-17T04:33:04.320Z,5.80
2022-08-17T04:35:41.334Z,16.60
2022-08-17T04:38:12.220Z,7.85
2022-08-17T04:40:58.212Z,8.07
2022-08-17T04:43:27.460Z,7.60
2022-08-17T04:46:01.747Z,8.15
2022-08-17T04:48:37.376Z,6.57
2022-08-17T04:51:31.136Z,7.65
2022-08-17T04:54:03.114Z,8.68
2022-08-17T04:56:31.394Z,8.38
2022-08-17T04:59:04.476Z,8.98
2022-08-17T05:01:34.566Z,10.30
2022-08-17T05:04:33.305Z,11.23
2022-08-17T05:06:55.266Z,10.43
2022-08-17T05:09:22.782Z,10.95
2022-08-17T05:11:51.257Z,9.80
2022-08-17T05:14:18.167Z,12.55
2022-08-17T05:16:45.975Z,9.23
2022-08-17T05:19:12.789Z,8.05
2022-08-17T05:21:39.606Z,8.38
2022-08-17T05:24:12.162Z,7.60
2022-08-17T05:26:53.701Z,9.90
2022-08-17T05:29:22.175Z,10.77
2022-08-17T05:32:38.000Z,8.57
2022-08-17T05:35:01.377Z,9.60
2022-08-17T05:37:28.271Z,10.32
2022-08-17T05:39:55.259Z,7.45
2022-08-17T05:42:22.663Z,9.13
2022-08-17T05:44:49.612Z,7.88
2022-08-17T05:47:17.760Z,8.50
2022-08-17T05:49:44.611Z,8.43
2022-08-17T05:52:19.996Z,11.75
2022-08-17T05:55:09.477Z,9.82
2022-08-17T05:57:43.481Z,7.15
2022-08-17T06:00:46.885Z,8.32
2022-08-17T06:04:00.694Z,8.80
2022-08-17T06:06:48.688Z,6.47
2022-08-17T06:09:34.821Z,6.07
2022-08-17T06:12:51.178Z,6.20
2022-08-17T06:15:55.547Z,3.83
2022-08-17T06:18:27.045Z,6.72
2022-08-17T06:21:00.054Z,5.80
2022-08-17T06:23:34.732Z,5.25
2022-08-17T06:26:25.820Z,6.10
2022-08-17T06:29:02.857Z,7.32
2022-08-17T06:31:35.553Z,6.82
2022-08-17T06:34:07.193Z,7.47
2022-08-17T06:36:59.100Z,5.35
2022-08-17T06:40:11.053Z,5.25
2022-08-17T06:43:06.812Z,3.47
2022-08-17T06:45:49.663Z,6.32
2022-08-17T06:48:27.056Z,5.95
2022-08-17T06:51:31.897Z,3.50
2022-08-17T06:54:08.408Z,1.77
2022-08-17T06:57:25.947Z,2.90
2022-08-17T06:59:59.398Z,4.38
2022-08-17T07:02:52.703Z,1.77
2022-08-17T07:05:26.228Z,3.60
2022-08-17T07:08:17.204Z,3.17
2022-08-17T07:10:50.407Z,4.32
2022-08-17T07:13:38.711Z,3.33
2022-08-17T07:16:23.830Z,3.95
2022-08-17T07:18:53.524Z,2.55
2022-08-17T07:21:55.184Z,3.58
2022-08-17T07:24:49.406Z,4.57
2022-08-17T07:27:24.198Z,2.75
2022-08-17T07:30:16.601Z,2.40
2022-08-17T07:32:54.972Z,3.83
2022-08-17T07:35:44.224Z,3.08
2022-08-17T07:38:26.864Z,2.50
2022-08-17T07:41:04.998Z,2.65
2022-08-17T07:43:40.966Z,2.35
2022-08-17T07:46:55.752Z,2.47
2022-08-17T07:49:46.469Z,5.95
2022-08-17T07:52:48.535Z,4.60
2022-08-17T07:55:35.619Z,3.88
2022-08-17T07:58:03.549Z,6.03
2022-08-17T08:00:32.363Z,8.52
2022-08-17T08:03:32.091Z,7.55
2022-08-17T08:06:02.758Z,6.07
2022-08-17T08:08:45.120Z,8.55
2022-08-17T08:11:16.641Z,9.18
2022-08-17T08:13:45.862Z,9.65
2022-08-17T08:16:25.643Z,7.95
2022-08-17T08:18:58.471Z,10.60
2022-08-17T08:21:54.959Z,12.63
2022-08-17T08:24:41.426Z,11.23
2022-08-17T08:27:31.181Z,11.65
2022-08-17T08:30:06.980Z,12.35
2022-08-17T08:33:12.678Z,14.57
2022-08-17T08:35:56.053Z,9.43
2022-08-17T08:38:53.724Z,12.30
2022-08-17T08:41:40.741Z,11.13
2022-08-17T08:45:01.360Z,10.10
2022-08-17T08:47:27.570Z,11.55
2022-08-17T08:50:37.568Z,10.98
2022-08-17T08:53:33.433Z,9.20
2022-08-17T08:56:08.737Z,10.20
2022-08-17T08:58:44.458Z,8.73
2022-08-17T09:01:28.641Z,10.80
2022-08-17T09:04:23.216Z,7.80
2022-08-17T09:07:20.505Z,8.27
2022-08-17T09:12:47.814Z,14.77
2022-08-17T09:15:28.039Z,7.68
2022-08-17T09:19:03.411Z,9.57
2022-08-17T09:21:10.833Z,8.02
2022-08-17T09:23:45.267Z,14.00
2022-08-17T09:26:30.720Z,13.38
2022-08-17T09:29:02.950Z,9.73
2022-08-17T09:31:56.872Z,9.23
2022-08-17T09:34:48.620Z,10.77
2022-08-17T09:37:33.076Z,14.18
2022-08-17T09:40:19.163Z,11.05
2022-08-17T09:42:56.357Z,11.60
2022-08-17T09:45:59.629Z,12.38
2022-08-17T09:48:33.953Z,11.98
2022-08-17T09:51:35.614Z,11.33
2022-08-17T09:54:21.360Z,13.13
2022-08-17T09:57:29.139Z,13.52
2022-08-17T10:00:28.855Z,19.05
2022-08-17T10:03:46.177Z,15.15
2022-08-17T10:06:22.033Z,12.65
2022-08-17T10:08:57.665Z,15.55
2022-08-17T10:11:58.389Z,12.38
2022-08-17T10:14:44.481Z,13.80
2022-08-17T10:17:28.764Z,13.57
2022-08-17T10:20:19.484Z,15.20
2022-08-17T10:23:09.825Z,16.02
2022-08-17T10:26:08.316Z,12.30
2022-08-17T10:29:11.704Z,19.33
2022-08-17T10:32:04.817Z,14.63
2022-08-17T10:35:49.218Z,17.10
2022-08-17T10:38:27.493Z,15.73
2022-08-17T10:41:15.284Z,16.52
2022-08-17T10:44:39.802Z,14.43
2022-08-17T10:47:14.605Z,15.63
2022-08-17T10:49:48.120Z,18.05
2022-08-17T10:52:22.101Z,15.82
2022-08-17T10:54:51.805Z,13.20
2022-08-17T10:57:34.294Z,17.63
2022-08-17T11:00:19.569Z,12.68
2022-08-17T11:02:54.305Z,16.17
2022-08-17T11:05:54.104Z,17.75
2022-08-17T11:09:03.153Z,17.13
2022-08-17T11:12:07.696Z,13.80
2022-08-17T11:14:52.542Z,13.48
2022-08-17T11:17:49.912Z,13.30
2022-08-17T11:21:16.778Z,11.88
2022-08-17T11:24:27.765Z,11.77
2022-08-17T11:27:19.270Z,15.02
2022-08-17T11:29:58.058Z,19.77
2022-08-17T11:32:47.159Z,14.35
2022-08-17T11:35:20.745Z,13.75
2022-08-17T11:38:33.973Z,15.65
2022-08-17T11:41:20.343Z,20.15
2022-08-17T11:44:10.617Z,16.23
2022-08-17T11:48:02.224Z,14.30
2022-08-17T11:51:17.465Z,15.65
2022-08-17T11:53:45.958Z,11.70
2022-08-17T11:56:48.901Z,14.48
2022-08-17T11:59:33.973Z,14.55
2022-08-17T12:02:23.280Z,13.65
2022-08-17T12:05:27.645Z,18.10
2022-08-17T12:08:17.902Z,13.73
2022-08-17T12:10:58.733Z,12.27
2022-08-17T12:13:27.398Z,17.48
2022-08-17T12:16:05.275Z,12.00
2022-08-17T12:18:35.995Z,18.00
2022-08-17T12:21:35.635Z,13.75
2022-08-17T12:24:29.464Z,14.23
2022-08-17T12:27:03.155Z,14.32
2022-08-17T12:29:38.398Z,13.30
2022-08-17T12:32:07.433Z,15.10
2022-08-17T12:34:43.099Z,17.10
2022-08-17T12:37:24.952Z,16.80
2022-08-17T12:40:08.467Z,14.40
2022-08-17T12:42:39.473Z,15.18
2022-08-17T12:45:35.665Z,15.55
2022-08-17T12:48:08.333Z,12.57
2022-08-17T12:50:38.756Z,18.70
2022-08-17T12:53:17.472Z,17.48
2022-08-17T12:55:44.969Z,14.60
2022-08-17T12:58:19.314Z,17.67
2022-08-17T13:01:00.628Z,14.97
2022-08-17T13:03:36.478Z,18.77
2022-08-17T13:06:10.578Z,13.02
2022-08-17T13:08:44.722Z,12.48
2022-08-17T13:11:14.281Z,13.93
2022-08-17T13:13:51.417Z,18.40
2022-08-17T13:16:26.828Z,15.02
2022-08-17T13:19:15.308Z,16.88
2022-08-17T13:21:49.561Z,15.32
2022-08-17T13:24:19.129Z,14.13
2022-08-17T13:26:47.599Z,15.20
2022-08-17T13:29:24.243Z,15.70
2022-08-17T13:32:04.898Z,16.00
2022-08-17T13:35:14.911Z,15.45
2022-08-17T13:37:38.218Z,13.80
2022-08-17T13:40:10.527Z,15.80
2022-08-17T13:42:52.407Z,15.95
2022-08-17T13:45:36.114Z,14.60
2022-08-17T13:48:12.574Z,16.92
2022-08-17T13:50:45.883Z,22.67
2022-08-17T13:53:27.970Z,16.25
2022-08-17T13:55:59.964Z,14.30
2022-08-17T13:58:35.788Z,19.67
2022-08-17T14:01:30.506Z,15.82
2022-08-17T14:03:59.224Z,14.18
2022-08-17T14:06:53.231Z,14.10
2022-08-17T14:09:22.752Z,16.25
2022-08-17T14:11:51.611Z,22.35
2022-08-17T14:14:19.092Z,15.23
2022-08-17T14:16:46.014Z,14.15
2022-08-17T14:19:14.437Z,17.52
2022-08-17T14:21:45.368Z,14.90
2022-08-17T14:24:26.734Z,17.55
2022-08-17T14:26:54.062Z,15.77
2022-08-17T14:29:23.486Z,12.93
2022-08-17T14:31:53.291Z,14.70
2022-08-17T14:34:23.248Z,15.35
2022-08-17T14:36:50.501Z,14.43
2022-08-17T14:39:18.850Z,13.10
2022-08-17T14:41:45.696Z,17.25
2022-08-17T14:44:13.329Z,12.93
2022-08-17T14:46:43.064Z,15.13
2022-08-17T14:49:12.760Z,20.05
2022-08-17T14:51:44.035Z,13.02
2022-08-17T14:54:34.268Z,21.80
2022-08-17T14:57:23.074Z,14.63
2022-08-17T14:59:55.111Z,10.95
2022-08-17T15:02:30.093Z,18.95
2022-08-17T15:05:04.577Z,12.63
2022-08-17T15:07:31.831Z,12.73
2022-08-17T15:10:02.490Z,10.63
2022-08-17T15:12:34.602Z,12.45
2022-08-17T15:15:06.395Z,9.80
2022-08-17T15:17:43.816Z,13.15
2022-08-17T15:20:19.580Z,11.95
2022-08-17T15:22:55.555Z,13.32
2022-08-17T15:25:25.147Z,14.30
2022-08-17T15:27:52.524Z,10.82
2022-08-17T15:30:20.510Z,14.32
2022-08-17T15:32:51.247Z,12.98
2022-08-17T15:35:26.851Z,12.35
2022-08-17T15:38:11.255Z,11.40
2022-08-17T15:40:45.459Z,18.88
2022-08-17T15:43:27.867Z,13.90
2022-08-17T15:46:24.324Z,12.25
2022-08-17T15:48:56.740Z,16.00
2022-08-17T15:51:31.194Z,11.93
2022-08-17T15:54:04.562Z,12.30
2022-08-17T15:56:46.398Z,12.18
2022-08-17T15:59:13.602Z,11.95
2022-08-17T16:03:14.863Z,12.13
2022-08-17T16:04:29.806Z,11.65
2022-08-17T16:06:58.916Z,11.52
2022-08-17T16:09:25.769Z,9.20
2022-08-17T16:11:55.591Z,11.68
2022-08-17T16:14:24.497Z,12.95
2022-08-17T16:16:56.328Z,13.00
2022-08-17T16:19:23.335Z,10.82
2022-08-17T16:21:50.189Z,11.63
2022-08-17T16:24:17.192Z,11.98
2022-08-17T16:26:44.310Z,9.50
2022-08-17T16:29:11.251Z,12.15
2022-08-17T16:31:38.885Z,11.15
2022-08-17T16:34:17.023Z,12.95
2022-08-17T16:36:54.596Z,7.68
2022-08-17T16:39:29.339Z,8.15
2022-08-17T16:41:57.762Z,7.63
2022-08-17T16:44:25.998Z,11.68
2022-08-17T16:46:53.560Z,9.93
2022-08-17T16:49:27.586Z,11.38
2022-08-17T16:52:10.634Z,10.45
2022-08-17T16:54:43.943Z,11.27
2022-08-17T16:57:16.127Z,12.13
2022-08-17T16:59:47.987Z,11.00
2022-08-17T17:02:17.119Z,8.45
2022-08-17T17:04:54.405Z,8.48
2022-08-17T17:07:44.113Z,14.82
2022-08-17T17:10:18.366Z,9.35
2022-08-17T17:13:02.971Z,7.97
2022-08-17T17:16:06.789Z,9.20
2022-08-17T17:18:48.333Z,10.85
2022-08-17T17:21:21.001Z,9.52
2022-08-17T17:23:57.389Z,10.27
2022-08-17T17:26:50.833Z,9.13
2022-08-17T17:29:28.249Z,9.02
2022-08-17T17:32:21.125Z,9.60
2022-08-17T17:35:00.123Z,7.85
2022-08-17T17:37:33.039Z,11.43
2022-08-17T17:40:25.244Z,7.22
2022-08-17T17:42:55.363Z,7.53
2022-08-17T17:45:33.586Z,9.88
2022-08-17T17:48:00.384Z,5.40
2022-08-17T17:50:37.726Z,7.50
2022-08-17T17:53:10.148Z,8.88
2022-08-17T17:56:21.239Z,10.50
2022-08-17T17:59:12.538Z,9.50
2022-08-17T18:01:45.262Z,13.38
2022-08-17T18:04:36.809Z,8.45
2022-08-17T18:07:40.406Z,9.00
2022-08-17T18:10:29.323Z,10.80
2022-08-17T18:13:15.658Z,8.18
2022-08-17T18:15:51.356Z,9.00
2022-08-17T18:18:18.268Z,12.25
2022-08-17T18:20:53.519Z,10.20
2022-08-17T18:23:27.655Z,9.32
2022-08-17T18:25:58.761Z,7.50
2022-08-17T18:28:35.962Z,10.93
2022-08-17T18:31:06.341Z,8.35
2022-08-17T18:33:34.657Z,9.73
2022-08-17T18:36:01.731Z,8.13
2022-08-17T18:38:36.217Z,8.00
2022-08-17T18:41:30.517Z,5.57
2022-08-17T18:44:04.770Z,9.20
2022-08-17T18:46:37.643Z,8.88
2022-08-17T18:49:28.896Z,7.97
2022-08-17T18:52:29.959Z,9.00
2022-08-17T18:55:11.057Z,7.07
2022-08-17T18:57:47.613Z,10.43
2022-08-17T19:00:36.305Z,8.88
2022-08-17T19:03:23.197Z,6.47
2022-08-17T19:06:29.548Z,9.00
2022-08-17T19:08:56.403Z,9.88
2022-08-17T19:11:30.894Z,8.10
2022-08-17T19:14:10.638Z,8.88
2022-08-17T19:17:04.048Z,10.13
2022-08-17T19:20:01.974Z,10.35
2022-08-17T19:23:03.956Z,7.57
2022-08-17T19:25:37.380Z,6.65
2022-08-17T19:28:25.807Z,10.45
2022-08-17T19:31:04.769Z,8.55
2022-08-17T19:33:31.792Z,7.18
2022-08-17T19:36:08.855Z,7.47
2022-08-17T19:39:13.143Z,10.05
2022-08-17T19:42:10.071Z,11.15
2022-08-17T19:45:13.231Z,9.05
2022-08-17T19:48:21.407Z,10.70
2022-08-17T19:51:08.509Z,9.27
2022-08-17T19:54:05.460Z,6.55
2022-08-17T19:56:44.910Z,9.85
2022-08-17T19:59:24.970Z,7.70
2022-08-17T20:02:01.374Z,11.48
2022-08-17T20:04:31.958Z,13.40
2022-08-17T20:07:11.590Z,12.05
2022-08-17T20:09:46.568Z,10.43
2022-08-17T20:12:26.226Z,13.10
2022-08-17T20:14:58.700Z,9.27
2022-08-17T20:17:32.261Z,9.48
2022-08-17T20:20:32.893Z,9.18
2022-08-17T20:23:25.817Z,7.55
2022-08-17T20:26:04.208Z,9.07
2022-08-17T20:28:39.057Z,7.55
2022-08-17T20:31:39.843Z,7.53
2022-08-17T20:34:34.920Z,7.10
2022-08-17T20:37:13.816Z,7.18
2022-08-17T20:40:09.114Z,7.20
2022-08-17T20:42:37.121Z,8.40
2022-08-17T20:45:22.274Z,6.43
2022-08-17T20:48:22.159Z,8.70
2022-08-17T20:50:52.601Z,12.45
2022-08-17T20:53:47.433Z,11.95
2022-08-17T20:56:45.320Z,8.13
2022-08-17T20:59:22.535Z,9.50
2022-08-17T21:02:18.653Z,9.30
2022-08-17T21:04:54.595Z,12.68
2022-08-17T21:07:24.729Z,10.20
2022-08-17T21:09:51.699Z,14.02
2022-08-17T21:12:42.920Z,9.88
2022-08-17T21:15:41.809Z,10.68
2022-08-17T21:18:42.093Z,9.73
2022-08-17T21:21:18.058Z,9.73
2022-08-17T21:24:00.155Z,9.15
2022-08-17T21:26:55.685Z,12.45
2022-08-17T21:29:31.396Z,10.13
2022-08-17T21:31:59.560Z,10.85
2022-08-17T21:34:31.209Z,13.93
2022-08-17T21:37:21.088Z,10.60
2022-08-17T21:40:18.510Z,11.77
2022-08-17T21:42:55.269Z,11.75
2022-08-17T21:45:37.108Z,10.75
2022-08-17T21:48:24.629Z,10.07
2022-08-17T21:51:11.501Z,11.93
2022-08-17T21:53:46.516Z,12.65
2022-08-17T21:56:24.805Z,10.88
2022-08-17T21:59:02.045Z,14.15
2022-08-17T22:01:35.498Z,16.38
2022-08-17T22:04:29.061Z,9.60
2022-08-17T22:06:58.999Z,15.15
2022-08-17T22:09:35.872Z,15.52
2022-08-17T22:12:11.441Z,13.30
2022-08-17T22:15:01.324Z,11.88
2022-08-17T22:17:45.114Z,15.27
2022-08-17T22:20:19.138Z,13.55
2022-08-17T22:23:04.613Z,13.50
2022-08-17T22:28:10.349Z,12.07
2022-08-17T22:30:41.385Z,12.98
2022-08-17T22:33:35.222Z,11.50
2022-08-17T22:36:26.336Z,13.07
2022-08-17T22:39:22.663Z,9.98
2022-08-17T22:42:01.048Z,9.95
2022-08-17T22:44:37.913Z,15.57
2022-08-17T22:47:23.769Z,12.93
2022-08-17T22:49:55.895Z,11.45
2022-08-17T22:52:57.407Z,14.93
2022-08-17T22:55:43.987Z,12.13
2022-08-17T22:58:37.026Z,15.65
2022-08-17T23:01:32.667Z,10.23
2022-08-17T23:04:29.985Z,10.52
2022-08-17T23:06:57.256Z,12.35
2022-08-17T23:09:24.185Z,10.23
2022-08-17T23:11:58.883Z,12.73
2022-08-17T23:14:31.717Z,9.63
2022-08-17T23:16:59.615Z,10.70
2022-08-17T23:19:28.101Z,11.27
2022-08-17T23:21:56.441Z,8.90
2022-08-17T23:24:29.000Z,8.80
2022-08-17T23:26:57.559Z,9.18
2022-08-17T23:29:29.698Z,10.55
2022-08-17T23:32:00.080Z,10.00
2022-08-17T23:34:28.548Z,7.97
2022-08-17T23:36:55.861Z,10.30
2022-08-17T23:39:27.303Z,8.38
2022-08-17T23:41:58.544Z,12.90
2022-08-17T23:44:26.965Z,9.60
2022-08-17T23:46:54.994Z,9.80
2022-08-17T23:49:21.897Z,11.57
2022-08-17T23:51:49.545Z,10.93
2022-08-17T23:54:26.763Z,9.32
2022-08-17T23:56:53.796Z,8.63
2022-08-17T23:59:23.073Z,13.52
